createdAt,value
2018-06-22T00:00:05.767Z,35.7
2018-06-22T00:02:10.558Z,35.7
2018-06-22T00:04:05.333Z,35.7
2018-06-22T00:06:05.564Z,35.7
2018-06-22T00:08:05.210Z,35.6
2018-06-22T00:10:05.545Z,35.6
2018-06-22T00:12:07.794Z,35.6
2018-06-22T00:14:05.424Z,35.6
2018-06-22T00:16:05.210Z,35.6
2018-06-22T00:18:05.161Z,35.6
2018-06-22T00:20:05.896Z,35.6
2018-06-22T00:22:05.583Z,35.6
2018-06-22T00:24:05.252Z,35.6
2018-06-22T00:26:05.901Z,35.7
2018-06-22T00:28:05.602Z,35.8
2018-06-22T00:30:15.438Z,35.8
2018-06-22T00:32:05.103Z,35.8
2018-06-22T00:34:05.329Z,35.8
2018-06-22T00:36:05.043Z,35.8
2018-06-22T00:38:05.746Z,35.8
2018-06-22T00:40:07.999Z,35.5
2018-06-22T00:42:08.195Z,35.6
2018-06-22T00:44:05.925Z,35.6
2018-06-22T00:46:05.629Z,35.6
2018-06-22T00:48:05.881Z,35.6
2018-06-22T00:50:10.619Z,35.6
2018-06-22T00:52:05.314Z,35.6
2018-06-22T00:54:15.692Z,35.5
2018-06-22T00:56:05.527Z,35.5
2018-06-22T00:58:07.761Z,35.6
2018-06-22T01:00:10.507Z,35.5
2018-06-22T01:02:05.186Z,35.3
2018-06-22T01:04:05.919Z,35.5
2018-06-22T01:06:08.119Z,35.4
2018-06-22T01:08:05.381Z,35.4
2018-06-22T01:10:05.067Z,35.6
2018-06-22T01:12:05.317Z,35.3
2018-06-22T01:14:05.005Z,35.3
2018-06-22T01:16:05.702Z,35.3
2018-06-22T01:18:08.117Z,35.5
2018-06-22T01:20:05.981Z,35.5
2018-06-22T01:22:05.785Z,35.3
2018-06-22T01:24:05.460Z,35.3
2018-06-22T01:26:05.151Z,35.3
2018-06-22T01:28:05.843Z,35.2
2018-06-22T01:30:05.603Z,35.2
2018-06-22T01:32:05.270Z,35.2
2018-06-22T01:34:06.182Z,35.2
2018-06-22T01:36:05.911Z,35.2
2018-06-22T01:38:08.169Z,35.1
2018-06-22T01:40:05.850Z,35.1
2018-06-22T01:42:05.129Z,35.1
2018-06-22T01:44:05.804Z,35.1
2018-06-22T01:46:07.567Z,35.1
2018-06-22T01:48:05.258Z,35
2018-06-22T01:50:05.923Z,35.1
2018-06-22T01:52:05.623Z,35.1
2018-06-22T01:54:15.487Z,35.1
2018-06-22T01:56:05.165Z,35.1
2018-06-22T01:58:05.943Z,35.1
2018-06-22T02:00:08.150Z,34.9
2018-06-22T02:02:05.649Z,34.9
2018-06-22T02:04:05.407Z,34.9
2018-06-22T02:06:05.104Z,35
2018-06-22T02:08:05.272Z,34.9
2018-06-22T02:10:05.974Z,34.9
2018-06-22T02:12:05.199Z,34.9
2018-06-22T02:14:05.936Z,34.9
2018-06-22T02:18:28.420Z,34.9
2018-06-22T02:20:05.067Z,34.9
2018-06-22T02:22:05.764Z,34.9
2018-06-22T02:24:07.974Z,34.8
2018-06-22T02:26:08.191Z,34.9
2018-06-22T02:28:07.951Z,34.8
2018-06-22T02:30:10.231Z,34.8
2018-06-22T02:32:08.632Z,34.8
2018-06-22T02:34:05.346Z,34.8
2018-06-22T02:36:05.056Z,34.7
2018-06-22T02:38:05.802Z,34.5
2018-06-22T02:40:05.488Z,34.5
2018-06-22T02:42:05.172Z,34.5
2018-06-22T02:44:05.938Z,34.5
2018-06-22T02:46:07.786Z,34.5
2018-06-22T02:48:10.559Z,34.4
2018-06-22T02:50:05.231Z,34.4
2018-06-22T02:52:18.741Z,34.4
2018-06-22T02:54:05.472Z,34.4
2018-06-22T02:56:05.848Z,34.5
2018-06-22T02:58:10.590Z,34.3
2018-06-22T03:00:07.801Z,34.2
2018-06-22T03:02:20.259Z,34.3
2018-06-22T03:04:08.491Z,34.3
2018-06-22T03:06:05.182Z,34.2
2018-06-22T03:08:05.992Z,34.4
2018-06-22T03:10:05.730Z,34.2
2018-06-22T03:12:06.028Z,34.2
2018-06-22T03:14:05.760Z,34.2
2018-06-22T03:16:08.025Z,34.2
2018-06-22T03:18:10.532Z,34.3
2018-06-22T03:20:05.725Z,34.3
2018-06-22T03:22:05.512Z,34.2
2018-06-22T03:24:05.224Z,34.3
2018-06-22T03:26:05.903Z,34.3
2018-06-22T03:28:10.252Z,34.3
2018-06-22T03:30:07.217Z,34.3
2018-06-22T03:32:05.777Z,34.3
2018-06-22T03:34:06.034Z,34.3
2018-06-22T03:36:08.211Z,34.3
2018-06-22T03:38:10.187Z,34.3
2018-06-22T03:40:05.877Z,34.2
2018-06-22T03:42:07.597Z,34.2
2018-06-22T03:44:10.378Z,34.2
2018-06-22T03:46:07.591Z,34.2
2018-06-22T03:48:05.300Z,34.2
2018-06-22T03:50:08.126Z,34.3
2018-06-22T03:52:05.911Z,34.3
2018-06-22T03:54:05.640Z,34.3
2018-06-22T03:56:05.401Z,34.2
2018-06-22T03:58:10.150Z,34.2
2018-06-22T04:00:05.822Z,34.1
2018-06-22T04:02:05.531Z,34.2
2018-06-22T04:04:06.182Z,34.2
2018-06-22T04:06:14.725Z,34.1
2018-06-22T04:08:05.516Z,34.1
2018-06-22T04:10:05.171Z,34.2
2018-06-22T04:12:08.241Z,34.2
2018-06-22T04:14:05.459Z,34.2
2018-06-22T04:16:05.140Z,34.4
2018-06-22T04:18:08.067Z,34.3
2018-06-22T04:20:15.879Z,34.2
2018-06-22T04:22:05.610Z,34.2
2018-06-22T04:24:05.326Z,34.3
2018-06-22T04:26:05.522Z,34.2
2018-06-22T04:28:05.227Z,34.2
2018-06-22T04:30:05.980Z,34.2
2018-06-22T04:32:10.750Z,34.3
2018-06-22T04:34:08.544Z,34.3
2018-06-22T04:36:05.715Z,34.3
2018-06-22T04:38:05.428Z,34.3
2018-06-22T04:40:05.198Z,34.3
2018-06-22T04:42:09.372Z,34.2
2018-06-22T04:44:05.581Z,34.4
2018-06-22T04:46:05.358Z,34.4
2018-06-22T04:48:05.063Z,34.3
2018-06-22T04:50:08.339Z,34.3
2018-06-22T04:52:05.064Z,34.4
2018-06-22T04:54:15.890Z,34.3
2018-06-22T04:56:05.101Z,34.3
2018-06-22T04:58:05.905Z,34.3
2018-06-22T05:00:05.651Z,34.3
2018-06-22T05:02:05.943Z,34.5
2018-06-22T05:04:08.138Z,34.5
2018-06-22T05:06:05.856Z,34.5
2018-06-22T05:08:05.524Z,34.5
2018-06-22T05:10:05.220Z,34.5
2018-06-22T05:12:05.866Z,34.4
2018-06-22T05:14:05.591Z,34.5
2018-06-22T05:16:07.861Z,34.6
2018-06-22T05:18:05.723Z,34.6
2018-06-22T05:20:05.404Z,34.5
2018-06-22T05:22:07.639Z,34.5
2018-06-22T05:24:05.872Z,34.5
2018-06-22T05:26:05.561Z,34.5
2018-06-22T05:28:08.342Z,34.7
2018-06-22T05:30:07.689Z,34.7
2018-06-22T05:32:05.442Z,34.7
2018-06-22T05:34:05.139Z,34.6
2018-06-22T05:36:05.908Z,34.8
2018-06-22T05:38:05.609Z,34.8
2018-06-22T05:40:05.302Z,34.7
2018-06-22T05:42:05.708Z,34.7
2018-06-22T05:44:05.440Z,34.6
2018-06-22T05:46:05.131Z,34.7
2018-06-22T05:48:08.364Z,34.8
2018-06-22T05:50:05.051Z,34.8
2018-06-22T05:52:05.976Z,34.8
2018-06-22T05:54:07.736Z,35
2018-06-22T05:56:05.388Z,35
2018-06-22T05:58:07.617Z,34.8
2018-06-22T06:00:05.388Z,34.8
2018-06-22T06:02:05.173Z,34.7
2018-06-22T06:04:05.331Z,34.8
2018-06-22T06:06:05.027Z,34.8
2018-06-22T06:08:05.737Z,34.7
2018-06-22T06:10:07.950Z,34.7
2018-06-22T06:12:05.737Z,34.9
2018-06-22T06:14:05.416Z,34.7
2018-06-22T06:16:05.591Z,34.8
2018-06-22T06:18:06.001Z,34.8
2018-06-22T06:20:07.873Z,34.9
2018-06-22T06:22:05.126Z,34.9
2018-06-22T06:24:05.425Z,34.9
2018-06-22T06:26:05.287Z,34.9
2018-06-22T06:28:05.065Z,34.9
2018-06-22T06:30:05.755Z,34.9
2018-06-22T06:32:05.534Z,34.9
2018-06-22T06:34:05.262Z,35
2018-06-22T06:36:05.304Z,35
2018-06-22T06:38:06.168Z,35
2018-06-22T06:40:05.289Z,35
2018-06-22T06:42:05.525Z,35.1
2018-06-22T06:44:05.285Z,35.1
2018-06-22T06:46:06.053Z,35.3
2018-06-22T06:48:05.814Z,35.3
2018-06-22T06:50:05.496Z,35.1
2018-06-22T06:52:05.189Z,35.1
2018-06-22T06:54:05.886Z,35.1
2018-06-22T06:56:08.052Z,35
2018-06-22T06:58:05.737Z,35.1
2018-06-22T07:00:05.962Z,35.1
2018-06-22T07:02:05.632Z,35.1
2018-06-22T07:04:08.344Z,35.1
2018-06-22T07:06:05.022Z,35.1
2018-06-22T07:08:05.456Z,35.1
2018-06-22T07:10:05.118Z,35
2018-06-22T07:12:06.800Z,35
2018-06-22T07:14:05.538Z,34.9
2018-06-22T07:16:05.241Z,34.9
2018-06-22T07:18:05.624Z,34.9
2018-06-22T07:20:15.410Z,34.9
2018-06-22T07:22:07.730Z,34.8
2018-06-22T07:24:05.426Z,34.8
2018-06-22T07:26:07.676Z,34.9
2018-06-22T07:28:05.403Z,34.7
2018-06-22T07:30:08.066Z,34.7
2018-06-22T07:32:05.853Z,34.7
2018-06-22T07:34:05.051Z,34.7
2018-06-22T07:36:05.553Z,34.8
2018-06-22T07:38:05.273Z,34.8
2018-06-22T07:40:06.020Z,34.9
2018-06-22T07:42:05.741Z,34.9
2018-06-22T07:44:05.567Z,34.9
2018-06-22T07:46:07.864Z,35.1
2018-06-22T07:48:05.588Z,35.1
2018-06-22T07:50:05.320Z,35.1
2018-06-22T07:52:05.241Z,35
2018-06-22T07:54:05.941Z,35
2018-06-22T07:56:10.671Z,34.8
2018-06-22T07:58:05.397Z,34.8
2018-06-22T08:00:10.149Z,34.5
2018-06-22T08:02:05.871Z,34.5
2018-06-22T08:04:13.169Z,34.3
2018-06-22T08:06:05.941Z,34.3
2018-06-22T08:08:05.660Z,34.3
2018-06-22T08:10:05.372Z,34.4
2018-06-22T08:12:05.009Z,34.5
2018-06-22T08:14:08.261Z,34.5
2018-06-22T08:16:05.930Z,34.4
2018-06-22T08:18:05.838Z,34.4
2018-06-22T08:20:06.463Z,34.5
2018-06-22T08:22:05.140Z,34.6
2018-06-22T08:24:05.816Z,34.6
2018-06-22T08:26:05.626Z,34.5
2018-06-22T08:28:07.889Z,34.5
2018-06-22T08:30:05.585Z,34.5
2018-06-22T08:32:05.276Z,34.5
2018-06-22T08:34:05.542Z,34.6
2018-06-22T08:36:05.183Z,34.4
2018-06-22T08:38:05.864Z,34.5
2018-06-22T08:40:05.567Z,34.4
2018-06-22T08:42:05.463Z,34.4
2018-06-22T08:44:05.282Z,34.4
2018-06-22T08:46:05.948Z,34.5
2018-06-22T08:48:05.636Z,34.5
2018-06-22T08:50:07.875Z,34.6
2018-06-22T08:52:05.596Z,34.4
2018-06-22T08:54:05.328Z,34.6
2018-06-22T08:56:05.023Z,34.4
2018-06-22T08:58:05.754Z,34.4
2018-06-22T09:00:05.447Z,34.4
2018-06-22T09:02:05.227Z,34.4
2018-06-22T09:04:05.992Z,34.5
2018-06-22T09:06:07.901Z,34.5
2018-06-22T09:08:05.636Z,34.5
2018-06-22T09:10:08.020Z,34.5
2018-06-22T09:12:05.704Z,34.3
2018-06-22T09:14:05.463Z,34.4
2018-06-22T09:16:05.228Z,34.2
2018-06-22T09:18:05.645Z,34.2
2018-06-22T09:20:05.354Z,34.2
2018-06-22T09:22:05.038Z,34.2
2018-06-22T09:24:05.726Z,34.1
2018-06-22T09:26:08.527Z,34.1
2018-06-22T09:28:05.146Z,34.1
2018-06-22T09:30:05.835Z,34.1
2018-06-22T09:32:08.082Z,34.1
2018-06-22T09:34:05.827Z,34.1
2018-06-22T09:36:05.585Z,33.9
2018-06-22T09:38:05.763Z,34.1
2018-06-22T09:40:05.453Z,34.1
2018-06-22T09:42:05.170Z,33.9
2018-06-22T09:44:05.839Z,33.9
2018-06-22T09:46:05.577Z,33.9
2018-06-22T09:48:05.493Z,33.8
2018-06-22T09:50:05.400Z,33.8
2018-06-22T09:52:05.093Z,33.8
2018-06-22T09:54:07.004Z,33.8
2018-06-22T09:56:05.740Z,33.7
2018-06-22T09:58:05.631Z,33.6
2018-06-22T10:00:08.027Z,33.6
2018-06-22T10:02:05.304Z,33.6
2018-06-22T10:04:05.084Z,33.6
2018-06-22T10:06:08.305Z,33.7
2018-06-22T10:08:08.574Z,33.8
2018-06-22T10:10:05.886Z,33.8
2018-06-22T10:12:08.167Z,33.8
2018-06-22T10:14:08.395Z,33.8
2018-06-22T10:16:05.067Z,33.8
2018-06-22T10:18:06.046Z,33.8
2018-06-22T10:20:08.330Z,33.7
2018-06-22T10:22:08.051Z,33.6
2018-06-22T10:24:05.817Z,33.6
2018-06-22T10:26:05.607Z,33.6
2018-06-22T10:28:05.796Z,33.6
2018-06-22T10:30:05.430Z,33.6
2018-06-22T10:32:05.106Z,33.6
2018-06-22T10:34:05.771Z,33.6
2018-06-22T10:36:05.446Z,33.6
2018-06-22T10:38:05.688Z,33.7
2018-06-22T10:40:06.937Z,33.8
2018-06-22T10:42:05.106Z,33.7
2018-06-22T10:44:08.304Z,33.6
2018-06-22T10:46:05.641Z,33.6
2018-06-22T10:48:05.893Z,33.7
2018-06-22T10:50:08.108Z,33.6
2018-06-22T10:52:05.768Z,33.6
2018-06-22T10:54:05.691Z,33.6
2018-06-22T10:56:05.387Z,33.6
2018-06-22T10:58:08.248Z,33.9
2018-06-22T11:00:05.938Z,33.9
2018-06-22T11:02:05.715Z,34
2018-06-22T11:04:05.108Z,34
2018-06-22T11:06:08.443Z,33.9
2018-06-22T11:08:05.183Z,33.9
2018-06-22T11:10:05.995Z,33.7
2018-06-22T11:12:05.697Z,33.9
2018-06-22T11:14:05.606Z,33.9
2018-06-22T11:16:10.409Z,34
2018-06-22T11:18:07.806Z,33.9
2018-06-22T11:20:07.659Z,33.9
2018-06-22T11:22:05.466Z,33.9
2018-06-22T11:24:05.192Z,33.9
2018-06-22T11:26:05.945Z,33.8
2018-06-22T11:28:05.607Z,33.8
2018-06-22T11:30:05.390Z,33.8
2018-06-22T11:32:05.247Z,33.8
2018-06-22T11:34:05.118Z,33.8
2018-06-22T11:36:08.378Z,33.7
2018-06-22T11:38:05.972Z,33.7
2018-06-22T11:40:07.455Z,33.6
2018-06-22T11:42:06.869Z,33.6
2018-06-22T11:44:06.856Z,33.6
2018-06-22T11:46:06.307Z,33.6
2018-06-22T11:48:08.250Z,33.6
2018-06-22T11:50:05.809Z,33.6
2018-06-22T11:52:06.224Z,33.6
2018-06-22T11:54:05.938Z,33.6
2018-06-22T11:56:05.879Z,33.6
2018-06-22T11:58:05.866Z,33.6
2018-06-22T12:00:06.341Z,33.6
2018-06-22T12:02:06.027Z,33.6
2018-06-22T12:04:05.782Z,33.6
2018-06-22T12:06:05.975Z,33.6
2018-06-22T12:08:05.535Z,33.7
2018-06-22T12:10:06.041Z,33.7
2018-06-22T12:12:05.391Z,33.6
2018-06-22T12:14:05.711Z,33.6
2018-06-22T12:16:05.975Z,33.6
2018-06-22T12:18:05.405Z,33.7
2018-06-22T12:20:05.609Z,33.6
2018-06-22T12:22:08.077Z,33.6
2018-06-22T12:24:05.380Z,33.6
2018-06-22T12:26:10.137Z,33.6
2018-06-22T12:28:05.827Z,33.6
2018-06-22T12:30:05.665Z,33.6
2018-06-22T12:32:05.362Z,33.6
2018-06-22T12:34:07.567Z,33.9
2018-06-22T12:36:05.259Z,33.7
2018-06-22T12:38:05.974Z,33.8
2018-06-22T12:40:08.258Z,33.8
2018-06-22T12:42:05.437Z,34
2018-06-22T12:44:05.223Z,34.1
2018-06-22T12:46:06.985Z,34.1
2018-06-22T12:48:05.706Z,34.2
2018-06-22T12:50:10.457Z,34.3
2018-06-22T12:52:05.372Z,34.3
2018-06-22T12:54:05.926Z,34.3
2018-06-22T12:56:05.653Z,34.5
2018-06-22T12:58:06.133Z,34.6
2018-06-22T13:00:05.853Z,34.7
2018-06-22T13:02:05.576Z,34.8
2018-06-22T13:04:05.363Z,34.7
2018-06-22T13:06:05.229Z,34.7
2018-06-22T13:08:13.602Z,34.9
2018-06-22T13:10:05.290Z,34.9
2018-06-22T13:12:05.989Z,34.7
2018-06-22T13:14:05.683Z,35
2018-06-22T13:16:05.437Z,34.9
2018-06-22T13:18:05.337Z,35
2018-06-22T13:20:05.053Z,35.1
2018-06-22T13:22:05.845Z,35.3
2018-06-22T13:24:05.556Z,35.3
2018-06-22T13:26:05.273Z,35.5
2018-06-22T13:28:06.003Z,35.6
2018-06-22T13:30:05.240Z,35.5
2018-06-22T13:32:05.508Z,35.8
2018-06-22T13:34:05.493Z,35.8
2018-06-22T13:36:05.198Z,35.8
2018-06-22T13:38:05.362Z,35.8
2018-06-22T13:40:12.613Z,35.9
2018-06-22T13:42:15.453Z,36
2018-06-22T13:44:05.164Z,36
2018-06-22T13:46:08.367Z,36
2018-06-22T13:48:05.019Z,36
2018-06-22T13:50:05.201Z,36.1
2018-06-22T13:52:06.215Z,36.2
2018-06-22T13:54:05.872Z,36.2
2018-06-22T13:56:05.558Z,36.2
2018-06-22T13:58:05.234Z,36.2
2018-06-22T14:00:05.120Z,36.3
2018-06-22T14:02:05.826Z,36.2
2018-06-22T14:04:05.532Z,36.3
2018-06-22T14:06:07.803Z,36.2
2018-06-22T14:08:05.028Z,36.3
2018-06-22T14:10:05.787Z,36.2
2018-06-22T14:12:08.027Z,36.2
2018-06-22T14:14:05.688Z,36.2
2018-06-22T14:16:05.923Z,36.1
2018-06-22T14:18:05.806Z,36.1
2018-06-22T14:20:05.694Z,36.1
2018-06-22T14:22:05.052Z,36
2018-06-22T14:24:08.321Z,36.5
2018-06-22T14:26:07.849Z,36.6
2018-06-22T14:28:08.172Z,36.6
2018-06-22T14:30:05.371Z,36.6
2018-06-22T14:32:05.109Z,36.8
2018-06-22T14:34:06.192Z,36.7
2018-06-22T14:36:08.551Z,36.8
2018-06-22T14:38:05.277Z,36.8
2018-06-22T14:40:05.938Z,36.6
2018-06-22T14:42:05.648Z,36.8
2018-06-22T14:44:05.987Z,36.8
2018-06-22T14:46:05.726Z,36.9
2018-06-22T14:48:05.506Z,37.1
2018-06-22T14:50:10.737Z,36.9
2018-06-22T14:52:05.503Z,37
2018-06-22T14:54:05.677Z,37
2018-06-22T14:56:05.171Z,37
2018-06-22T14:58:05.868Z,36.9
2018-06-22T15:00:08.130Z,36.8
2018-06-22T15:02:05.845Z,36.8
2018-06-22T15:04:05.589Z,36.8
2018-06-22T15:06:05.273Z,36.8
2018-06-22T15:08:06.033Z,36.8
2018-06-22T15:10:05.775Z,36.7
2018-06-22T15:12:05.902Z,36.7
2018-06-22T15:14:08.083Z,36.6
2018-06-22T15:16:05.782Z,36.5
2018-06-22T15:18:08.206Z,36.2
2018-06-22T15:20:05.528Z,36.6
2018-06-22T15:22:05.271Z,36.3
2018-06-22T15:24:05.163Z,36.4
2018-06-22T15:26:08.389Z,36.5
2018-06-22T15:28:05.630Z,36.3
2018-06-22T15:30:05.301Z,36.5
2018-06-22T15:32:05.984Z,36.3
2018-06-22T15:34:05.878Z,36.5
2018-06-22T15:36:05.069Z,36.5
2018-06-22T15:38:05.890Z,36.5
2018-06-22T15:40:05.071Z,36.5
2018-06-22T15:42:05.701Z,36.5
2018-06-22T15:44:07.908Z,36.5
2018-06-22T15:46:05.727Z,36.5
2018-06-22T15:48:05.407Z,36.4
2018-06-22T15:50:05.164Z,36.4
2018-06-22T15:52:05.857Z,36.4
2018-06-22T15:54:10.726Z,36.3
2018-06-22T15:56:05.552Z,36.3
2018-06-22T15:58:07.762Z,36.3
2018-06-22T16:00:05.485Z,36.3
2018-06-22T16:02:05.221Z,36.3
2018-06-22T16:04:07.405Z,36.2
2018-06-22T16:06:05.076Z,36.3
2018-06-22T16:08:05.798Z,36.3
2018-06-22T16:10:05.604Z,36.2
2018-06-22T16:12:05.277Z,36.2
2018-06-22T16:14:05.970Z,36.2
2018-06-22T16:16:05.650Z,36.1
2018-06-22T16:18:05.308Z,36.2
2018-06-22T16:20:05.815Z,36.1
2018-06-22T16:22:10.681Z,36.2
2018-06-22T16:24:08.211Z,36.1
2018-06-22T16:26:05.868Z,36.1
2018-06-22T16:28:05.094Z,36.1
2018-06-22T16:30:05.872Z,36.1
2018-06-22T16:32:07.647Z,36.2
2018-06-22T16:34:05.459Z,36.2
2018-06-22T16:36:07.926Z,36.3
2018-06-22T16:38:05.861Z,36.1
2018-06-22T16:40:05.530Z,36.1
2018-06-22T16:42:05.404Z,36.1
2018-06-22T16:44:05.230Z,36
2018-06-22T16:46:06.042Z,36
2018-06-22T16:48:05.080Z,36.1
2018-06-22T16:50:05.787Z,36.2
2018-06-22T16:52:10.527Z,36.1
2018-06-22T16:54:14.537Z,36.1
2018-06-22T16:56:08.288Z,36.2
2018-06-22T16:58:05.900Z,36.2
2018-06-22T17:00:05.765Z,36.3
2018-06-22T17:02:07.531Z,36.1
2018-06-22T17:04:05.422Z,36.1
2018-06-22T17:06:05.258Z,36.1
2018-06-22T17:08:05.274Z,36.1
2018-06-22T17:10:06.414Z,36.1
2018-06-22T17:12:05.292Z,36.1
2018-06-22T17:14:12.840Z,36.1
2018-06-22T17:16:10.361Z,36.1
2018-06-22T17:18:05.536Z,36.1
2018-06-22T17:20:10.548Z,36.1
2018-06-22T17:22:05.490Z,35.9
2018-06-22T17:24:07.958Z,35.9
2018-06-22T17:26:05.628Z,35.9
2018-06-22T17:28:05.276Z,35.9
2018-06-22T17:30:06.028Z,36
2018-06-22T17:32:07.263Z,35.9
2018-06-22T17:34:05.880Z,35.9
2018-06-22T17:36:05.895Z,36.1
2018-06-22T17:38:05.796Z,36.1
2018-06-22T17:40:08.053Z,36.1
2018-06-22T17:42:05.787Z,36
2018-06-22T17:44:05.724Z,35.9
2018-06-22T17:46:05.515Z,36.1
2018-06-22T17:48:05.761Z,35.9
2018-06-22T17:50:05.702Z,36
2018-06-22T17:52:10.445Z,36.1
2018-06-22T17:54:05.148Z,36.1
2018-06-22T17:56:05.861Z,36
2018-06-22T17:58:05.674Z,36.1
2018-06-22T18:00:05.308Z,36
2018-06-22T18:02:05.991Z,36
2018-06-22T18:04:05.743Z,36
2018-06-22T18:06:05.455Z,36
2018-06-22T18:08:08.601Z,36
2018-06-22T18:10:05.418Z,36.1
2018-06-22T18:12:05.205Z,36.2
2018-06-22T18:14:05.980Z,36.1
2018-06-22T18:16:05.698Z,36.2
2018-06-22T18:18:05.635Z,36.2
2018-06-22T18:20:05.646Z,36.2
2018-06-22T18:22:08.020Z,36.2
2018-06-22T18:24:05.898Z,36.1
2018-06-22T18:26:11.722Z,36.1
2018-06-22T18:28:05.419Z,36.2
2018-06-22T18:30:10.726Z,36.2
2018-06-22T18:32:07.982Z,36.4
2018-06-22T18:34:05.258Z,36.2
2018-06-22T18:36:08.482Z,36.3
2018-06-22T18:38:08.199Z,36.3
2018-06-22T18:40:08.104Z,36.4
2018-06-22T18:42:05.897Z,36.4
2018-06-22T18:44:05.209Z,36.5
2018-06-22T18:46:08.408Z,36.5
2018-06-22T18:48:05.155Z,36.5
2018-06-22T18:50:08.380Z,36.5
2018-06-22T18:52:08.105Z,36.6
2018-06-22T18:54:05.797Z,36.6
2018-06-22T18:56:05.469Z,36.6
2018-06-22T18:58:05.995Z,36.7
2018-06-22T19:00:10.853Z,36.6
2018-06-22T19:02:05.590Z,36.5
2018-06-22T19:04:08.393Z,36.5
2018-06-22T19:06:05.331Z,36.6
2018-06-22T19:08:05.169Z,36.5
2018-06-22T19:10:11.111Z,36.5
2018-06-22T19:12:05.916Z,36.5
2018-06-22T19:14:06.018Z,36.5
2018-06-22T19:16:05.220Z,36.5
2018-06-22T19:18:07.976Z,36.3
2018-06-22T19:20:05.662Z,36.3
2018-06-22T19:22:08.443Z,36.3
2018-06-22T19:24:05.228Z,36.3
2018-06-22T19:26:05.985Z,36.3
2018-06-22T19:28:08.358Z,36.3
2018-06-22T19:30:05.142Z,36.3
2018-06-22T19:32:05.834Z,36.3
2018-06-22T19:34:05.508Z,36.4
2018-06-22T19:36:07.732Z,36.4
2018-06-22T19:38:05.453Z,36.2
2018-06-22T19:40:07.921Z,36.4
2018-06-22T19:42:05.721Z,36.4
2018-06-22T19:44:05.381Z,36.4
2018-06-22T19:46:05.632Z,36.4
2018-06-22T19:48:06.335Z,36.4
2018-06-22T19:50:05.664Z,36.5
2018-06-22T19:52:08.036Z,36.6
2018-06-22T19:54:05.726Z,36.6
2018-06-22T19:56:05.405Z,36.6
2018-06-22T19:58:05.105Z,36.7
2018-06-22T20:00:08.368Z,36.7
2018-06-22T20:02:07.647Z,36.7
2018-06-22T20:04:05.845Z,36.6
2018-06-22T20:06:08.076Z,36.7
2018-06-22T20:08:05.733Z,36.7
2018-06-22T20:10:08.018Z,36.8
2018-06-22T20:12:05.251Z,36.8
2018-06-22T20:14:08.496Z,36.8
2018-06-22T20:16:05.179Z,36.8
2018-06-22T20:18:05.299Z,36.9
2018-06-22T20:20:05.971Z,36.9
2018-06-22T20:22:08.203Z,36.9
2018-06-22T20:24:05.966Z,36.9
2018-06-22T20:26:06.652Z,36.9
2018-06-22T20:28:10.406Z,36.8
2018-06-22T20:30:05.146Z,36.9
2018-06-22T20:32:05.799Z,36.9
2018-06-22T20:34:10.555Z,37
2018-06-22T20:36:05.758Z,37
2018-06-22T20:38:05.419Z,37.2
2018-06-22T20:40:05.135Z,37.4
2018-06-22T20:42:06.088Z,37.4
2018-06-22T20:44:10.809Z,37
2018-06-22T20:46:05.560Z,37.2
2018-06-22T20:48:05.821Z,36.7
2018-06-22T20:50:06.930Z,37
2018-06-22T20:52:05.093Z,37.2
2018-06-22T20:54:05.770Z,37.2
2018-06-22T20:56:06.504Z,37.4
2018-06-22T20:58:06.628Z,37.4
2018-06-22T21:00:05.864Z,37.4
2018-06-22T21:02:15.878Z,37.4
2018-06-22T21:04:10.835Z,37.2
2018-06-22T21:06:05.553Z,37.2
2018-06-22T21:08:05.283Z,37.4
2018-06-22T21:10:06.106Z,37.4
2018-06-22T21:12:05.043Z,37.4
2018-06-22T21:14:05.932Z,37.4
2018-06-22T21:16:06.678Z,37.4
2018-06-22T21:18:05.551Z,37.4
2018-06-22T21:20:05.142Z,37.4
2018-06-22T21:22:05.505Z,37.4
2018-06-22T21:24:07.750Z,37.4
2018-06-22T21:26:05.466Z,37.4
2018-06-22T21:28:06.181Z,37.4
2018-06-22T21:30:08.417Z,37.4
2018-06-22T21:32:07.683Z,37.4
2018-06-22T21:34:06.123Z,37.4
2018-06-22T21:36:05.417Z,37.4
2018-06-22T21:38:05.135Z,37.4
2018-06-22T21:40:05.644Z,37.4
2018-06-22T21:42:10.467Z,37.4
2018-06-22T21:44:08.257Z,37.4
2018-06-22T21:46:08.497Z,37.4
2018-06-22T21:48:05.174Z,37.4
2018-06-22T21:50:05.923Z,37.4
2018-06-22T21:52:05.645Z,37.4
2018-06-22T21:54:05.474Z,37.4
2018-06-22T21:56:05.177Z,37.4
2018-06-22T21:58:05.904Z,37.4
2018-06-22T22:00:08.139Z,37.4
2018-06-22T22:02:05.649Z,37.4
2018-06-22T22:04:10.656Z,37.4
2018-06-22T22:06:11.031Z,37.4
2018-06-22T22:08:07.847Z,37.4
2018-06-22T22:10:05.588Z,37.4
2018-06-22T22:12:05.455Z,37.4
2018-06-22T22:14:05.752Z,37.4
2018-06-22T22:16:05.530Z,37.4
2018-06-22T22:18:05.467Z,37.4
2018-06-22T22:20:05.251Z,37.4
2018-06-22T22:22:05.675Z,37.4
2018-06-22T22:24:05.347Z,37.5
2018-06-22T22:26:07.583Z,37.4
2018-06-22T22:28:07.774Z,37.2
2018-06-22T22:30:07.994Z,37.2
2018-06-22T22:32:05.755Z,37.2
2018-06-22T22:34:05.673Z,37.2
2018-06-22T22:36:05.476Z,37.4
2018-06-22T22:38:05.207Z,37.4
2018-06-22T22:40:05.887Z,37.4
2018-06-22T22:42:05.592Z,37.2
2018-06-22T22:44:05.698Z,37.2
2018-06-22T22:46:05.398Z,37.2
2018-06-22T22:48:10.137Z,37.2
2018-06-22T22:50:05.791Z,37.2
2018-06-22T22:52:08.539Z,37.2
2018-06-22T22:54:05.217Z,37.2
2018-06-22T22:56:05.884Z,37.2
2018-06-22T22:58:05.615Z,37.2
2018-06-22T23:00:07.831Z,37.2
2018-06-22T23:02:08.263Z,37.2
2018-06-22T23:04:08.492Z,37.2
2018-06-22T23:06:07.722Z,37.2
2018-06-22T23:08:08.000Z,37.2
2018-06-22T23:10:05.221Z,37.2
2018-06-22T23:12:07.948Z,37.2
2018-06-22T23:14:05.642Z,37.2
2018-06-22T23:16:05.917Z,37.2
2018-06-22T23:18:05.803Z,37.2
2018-06-22T23:20:07.989Z,37.2
2018-06-22T23:22:05.650Z,37.2
2018-06-22T23:24:07.873Z,37
2018-06-22T23:26:05.567Z,37.2
2018-06-22T23:28:05.234Z,37.2
2018-06-22T23:30:05.948Z,37.2
2018-06-22T23:32:05.218Z,37.2
2018-06-22T23:34:05.914Z,37.2
2018-06-22T23:36:05.760Z,37
2018-06-22T23:38:05.484Z,37.2
2018-06-22T23:40:05.199Z,37.2
2018-06-22T23:42:05.420Z,37.2
2018-06-22T23:44:05.101Z,37
2018-06-22T23:46:05.795Z,37.2
2018-06-22T23:48:05.583Z,37
2018-06-22T23:50:05.264Z,37
2018-06-22T23:52:08.488Z,37
2018-06-22T23:54:05.217Z,37
2018-06-22T23:56:08.405Z,37.2
2018-06-22T23:58:05.057Z,37
